Time;durP1;ratioP1;P1;durP2;ratioP2;P2;SDS_P1;SDS_P2;PMS_P1;PMS_P2;Temp;Humidity;BMP_temperature;BMP_pressure;BME280_temperature;BME280_humidity;BME280_pressure;Samples;Min_cycle;Max_cycle;Signal;HPM_P1;HPM_P2
2023/09/29 00:00:35;;;;;;;23.83;15.63;;;;;;;15.54;100.00;101447.00;5053642;28;20067;-64
2023/09/29 00:03:00;;;;;;;25.58;15.57;;;;;;;15.54;100.00;101443.41;5062002;28;20208;-64
2023/09/29 00:05:27;;;;;;;24.75;15.57;;;;;;;15.51;100.00;101447.66;5073710;28;20039;-64
2023/09/29 00:07:53;;;;;;;24.40;15.95;;;;;;;15.53;100.00;101438.97;5073446;28;20123;-64
2023/09/29 00:10:20;;;;;;;26.05;15.95;;;;;;;15.53;100.00;101439.81;5071552;28;20047;-64
2023/09/29 00:12:48;;;;;;;24.25;16.23;;;;;;;15.53;100.00;101444.53;5071105;28;20032;-64
2023/09/29 00:15:15;;;;;;;26.77;15.80;;;;;;;15.55;100.00;101437.47;5062906;28;20029;-64
2023/09/29 00:17:40;;;;;;;26.48;15.90;;;;;;;15.57;100.00;101432.41;5071723;28;20043;-64
2023/09/29 00:20:27;;;;;;;23.05;15.57;;;;;;;15.58;100.00;101436.84;5062189;28;20025;-65
2023/09/29 00:22:53;;;;;;;24.00;15.90;;;;;;;15.61;100.00;101440.94;5070349;28;20293;-65
2023/09/29 00:25:19;;;;;;;23.98;15.32;;;;;;;15.64;100.00;101437.50;5072840;28;20020;-65
2023/09/29 00:27:45;;;;;;;25.70;16.15;;;;;;;15.63;100.00;101441.44;5041607;28;20511;-65
2023/09/29 00:30:17;;;;;;;23.33;15.18;;;;;;;15.67;100.00;101445.22;5058046;28;20099;-65
2023/09/29 00:32:48;;;;;;;24.63;15.00;;;;;;;15.69;100.00;101439.31;5053224;28;20029;-65
2023/09/29 00:35:29;;;;;;;22.83;14.75;;;;;;;15.71;100.00;101429.47;5068344;28;20033;-66
2023/09/29 00:37:56;;;;;;;23.23;15.32;;;;;;;15.72;100.00;101433.91;5072881;28;20028;-65
2023/09/29 00:40:22;;;;;;;23.48;15.27;;;;;;;15.71;100.00;101437.84;5064886;28;20037;-66
2023/09/29 00:42:48;;;;;;;23.65;15.65;;;;;;;15.72;100.00;101433.09;5060950;28;20025;-65
2023/09/29 00:45:16;;;;;;;23.85;15.63;;;;;;;15.74;100.00;101431.63;5056559;28;20048;-65
2023/09/29 00:47:45;;;;;;;22.85;14.98;;;;;;;15.75;100.00;101433.25;5068798;28;20475;-65
2023/09/29 00:50:11;;;;;;;23.80;14.95;;;;;;;15.78;100.00;101430.94;5069021;28;20044;-65
2023/09/29 00:52:38;;;;;;;25.98;15.55;;;;;;;15.79;100.00;101433.41;5069245;28;20033;-65
2023/09/29 00:55:15;;;;;;;24.88;15.55;;;;;;;15.84;100.00;101421.31;5066787;28;20025;-65
2023/09/29 00:57:42;;;;;;;23.02;15.35;;;;;;;15.85;100.00;101417.38;5064798;28;20033;-66
2023/09/29 01:00:15;;;;;;;23.45;15.73;;;;;;;15.83;100.00;101416.84;5070463;28;20047;-65
2023/09/29 01:02:43;;;;;;;25.48;17.25;;;;;;;15.85;100.00;101420.16;5062539;28;20051;-65
2023/09/29 01:05:10;;;;;;;22.45;15.32;;;;;;;15.85;100.00;101414.59;5054634;28;20021;-65
2023/09/29 01:07:36;;;;;;;21.30;15.82;;;;;;;15.84;100.00;101412.94;5062552;28;20078;-65
2023/09/29 01:10:01;;;;;;;21.42;15.73;;;;;;;15.86;100.00;101416.22;5054698;28;20082;-65
2023/09/29 01:12:29;;;;;;;23.33;15.88;;;;;;;15.86;100.00;101417.03;5067790;28;20025;-65
2023/09/29 01:14:55;;;;;;;22.77;15.27;;;;;;;15.86;100.00;101413.44;5052813;28;20025;-65
2023/09/29 01:17:20;;;;;;;23.05;15.65;;;;;;;15.87;100.00;101417.88;5037624;28;20062;-65
2023/09/29 01:19:48;;;;;;;21.77;15.15;;;;;;;15.88;100.00;101408.31;5064813;28;20033;-65
2023/09/29 01:22:13;;;;;;;22.05;15.55;;;;;;;15.87;100.00;101401.94;5072270;28;20033;-65
2023/09/29 01:24:39;;;;;;;24.23;15.48;;;;;;;15.86;100.00;101411.44;5065699;28;20507;-64
2023/09/29 01:27:04;;;;;;;21.67;15.50;;;;;;;15.87;100.00;101403.91;5056512;28;20104;-65
2023/09/29 01:29:30;;;;;;;21.30;15.70;;;;;;;15.87;100.00;101403.91;5070721;28;20129;-64
2023/09/29 01:31:55;;;;;;;22.00;15.57;;;;;;;15.86;100.00;101391.13;5067121;28;20047;-65
2023/09/29 01:34:21;;;;;;;21.45;15.70;;;;;;;15.85;100.00;101386.69;5051882;28;20024;-65
2023/09/29 01:36:48;;;;;;;22.48;15.25;;;;;;;15.87;100.00;101378.81;5068686;28;20082;-65
2023/09/29 01:39:13;;;;;;;22.42;15.07;;;;;;;15.83;100.00;101375.81;5070682;28;20075;-65
2023/09/29 01:41:43;;;;;;;23.52;16.10;;;;;;;15.83;100.00;101378.59;5066345;28;20128;-65
2023/09/29 01:44:08;;;;;;;23.00;15.90;;;;;;;15.83;100.00;101373.00;5052439;28;20035;-65
2023/09/29 01:46:34;;;;;;;22.13;15.05;;;;;;;15.82;100.00;101370.56;5044643;28;20111;-65
2023/09/29 01:48:59;;;;;;;21.83;15.05;;;;;;;15.82;100.00;101367.78;5062464;28;20107;-65
2023/09/29 01:51:29;;;;;;;21.33;14.82;;;;;;;15.75;100.00;101363.53;5061096;28;20037;-65
2023/09/29 01:53:54;;;;;;;23.02;15.30;;;;;;;15.82;100.00;101360.22;5076368;28;20419;-65
2023/09/29 01:56:21;;;;;;;20.92;14.98;;;;;;;15.81;100.00;101358.59;5060785;28;20025;-65
2023/09/29 01:58:48;;;;;;;20.70;14.70;;;;;;;15.81;100.00;101364.19;5058814;28;20028;-65
2023/09/29 02:01:14;;;;;;;21.02;14.68;;;;;;;15.83;100.00;101355.47;5056833;28;20029;-65
2023/09/29 02:03:41;;;;;;;21.73;14.88;;;;;;;15.82;100.00;101357.41;5070237;28;20093;-65
2023/09/29 02:06:06;;;;;;;22.52;15.32;;;;;;;15.81;100.00;101347.44;5068782;28;20029;-65
2023/09/29 02:08:31;;;;;;;23.13;15.18;;;;;;;15.82;100.00;101354.63;5070830;28;20025;-65
2023/09/29 02:10:56;;;;;;;20.55;14.23;;;;;;;15.81;100.00;101363.34;5071104;28;20035;-64
2023/09/29 02:13:22;;;;;;;20.65;14.38;;;;;;;15.81;100.00;101350.22;5058025;28;20036;-64
2023/09/29 02:15:47;;;;;;;21.33;14.27;;;;;;;15.81;100.00;101346.59;5064242;28;20110;-64
2023/09/29 02:18:12;;;;;;;19.30;14.38;;;;;;;15.82;100.00;101342.66;5068996;28;20028;-65
2023/09/29 02:20:46;;;;;;;22.08;14.10;;;;;;;15.81;100.00;101341.84;5062313;28;20108;-64
2023/09/29 02:23:11;;;;;;;20.65;14.07;;;;;;;15.81;100.00;101347.44;5055504;28;20036;-64
2023/09/29 02:25:37;;;;;;;20.85;14.77;;;;;;;15.79;100.00;101355.31;5065234;28;20033;-64
2023/09/29 02:28:02;;;;;;;19.88;14.45;;;;;;;15.78;100.00;101350.88;5057496;28;20041;-65
2023/09/29 02:30:28;;;;;;;20.70;14.63;;;;;;;15.77;100.00;101345.63;5072279;28;20109;-65
2023/09/29 02:32:53;;;;;;;20.42;14.23;;;;;;;15.75;100.00;101344.00;5075692;28;20032;-66
2023/09/29 02:35:19;;;;;;;21.95;14.70;;;;;;;15.73;100.00;101346.28;5071926;28;20032;-65
2023/09/29 02:37:45;;;;;;;20.10;14.00;;;;;;;15.73;100.00;101340.72;5059386;28;20422;-65
2023/09/29 02:40:11;;;;;;;20.60;14.20;;;;;;;15.75;100.00;101338.41;5072788;28;20115;-66
2023/09/29 02:42:36;;;;;;;20.40;14.65;;;;;;;15.78;100.00;101333.31;5050886;28;20120;-65
2023/09/29 02:45:02;;;;;;;22.50;14.23;;;;;;;15.81;100.00;101330.69;5064589;28;20115;-66
2023/09/29 02:47:27;;;;;;;20.85;14.32;;;;;;;15.84;100.00;101327.25;5066617;28;20029;-65
2023/09/29 02:49:52;;;;;;;20.00;14.23;;;;;;;15.86;100.00;101318.59;5071263;28;20040;-65
2023/09/29 02:52:17;;;;;;;20.70;13.90;;;;;;;15.86;100.00;101313.81;5062318;28;20020;-64
2023/09/29 02:54:43;;;;;;;19.27;13.77;;;;;;;15.89;100.00;101309.53;5066621;28;20107;-65
2023/09/29 02:57:08;;;;;;;19.45;13.77;;;;;;;15.90;100.00;101314.81;5068475;28;20025;-65
2023/09/29 02:59:33;;;;;;;21.75;13.73;;;;;;;15.93;100.00;101313.31;5070670;28;20517;-65
2023/09/29 03:02:00;;;;;;;19.42;13.40;;;;;;;15.96;100.00;101311.81;5055536;28;20033;-65
2023/09/29 03:04:26;;;;;;;19.55;13.45;;;;;;;15.97;100.00;101310.66;5074605;28;20048;-65
2023/09/29 03:06:52;;;;;;;20.85;13.10;;;;;;;15.99;100.00;101300.00;5067705;28;20048;-65
2023/09/29 03:09:18;;;;;;;19.40;14.13;;;;;;;15.98;100.00;101301.16;5052976;28;20049;-65
2023/09/29 03:11:44;;;;;;;20.67;13.68;;;;;;;16.00;100.00;101307.22;5054896;28;20033;-65
2023/09/29 03:14:09;;;;;;;20.88;14.45;;;;;;;16.03;100.00;101298.16;5068370;28;20021;-65
2023/09/29 03:16:35;;;;;;;19.98;14.10;;;;;;;16.02;100.00;101297.38;5061468;28;20107;-65
2023/09/29 03:19:04;;;;;;;19.65;13.90;;;;;;;16.04;100.00;101297.84;5062030;28;20032;-65
2023/09/29 03:21:29;;;;;;;20.20;14.30;;;;;;;16.06;100.00;101300.31;5062983;28;20491;-66
2023/09/29 03:23:55;;;;;;;19.10;13.70;;;;;;;16.06;100.00;101295.53;5069159;28;20025;-65
2023/09/29 03:26:22;;;;;;;19.92;13.68;;;;;;;16.08;100.00;101295.22;5064168;28;20021;-64
2023/09/29 03:28:49;;;;;;;21.10;13.77;;;;;;;16.12;100.00;101290.59;5054780;28;20071;-65
2023/09/29 03:31:15;;;;;;;20.58;14.02;;;;;;;16.13;100.00;101291.44;5065317;28;20029;-65
2023/09/29 03:33:41;;;;;;;20.38;14.18;;;;;;;16.13;100.00;101289.44;5068187;28;20086;-65
2023/09/29 03:36:06;;;;;;;20.38;14.05;;;;;;;16.14;100.00;101279.13;5053439;28;20029;-65
2023/09/29 03:38:32;;;;;;;20.13;14.05;;;;;;;16.15;100.00;101273.19;5055521;28;20115;-65
2023/09/29 03:40:57;;;;;;;20.00;14.15;;;;;;;16.14;100.00;101277.13;5056234;28;20429;-65
2023/09/29 03:43:23;;;;;;;19.35;13.38;;;;;;;16.14;100.00;101268.75;5060399;28;20040;-65
2023/09/29 03:45:53;;;;;;;19.38;13.75;;;;;;;16.14;100.00;101260.38;5074189;28;20048;-65
2023/09/29 03:48:19;;;;;;;20.83;13.88;;;;;;;16.15;100.00;101250.06;5058144;28;20036;-65
2023/09/29 03:50:44;;;;;;;20.40;13.25;;;;;;;16.13;100.00;101246.78;5072212;28;20025;-64
2023/09/29 03:53:10;;;;;;;20.02;13.57;;;;;;;16.10;100.00;101242.69;5068704;28;20024;-65
2023/09/29 03:55:35;;;;;;;19.40;13.57;;;;;;;16.07;100.00;101243.34;5063496;28;20162;-64
2023/09/29 03:58:01;;;;;;;20.05;13.73;;;;;;;16.08;100.00;101250.56;5064359;28;20150;-65
2023/09/29 04:00:26;;;;;;;19.73;14.63;;;;;;;16.08;100.00;101246.94;5059407;28;20032;-65
2023/09/29 04:02:53;;;;;;;18.65;13.00;;;;;;;16.06;100.00;101241.69;5071324;28;20059;-65
2023/09/29 04:05:19;;;;;;;20.15;13.50;;;;;;;16.08;100.00;101244.97;5058917;28;20365;-65
2023/09/29 04:07:44;;;;;;;18.85;13.75;;;;;;;16.08;100.00;101236.63;5058059;28;20029;-65
2023/09/29 04:10:12;;;;;;;21.55;13.80;;;;;;;16.09;100.00;101237.41;5073184;28;20030;-65
2023/09/29 04:12:39;;;;;;;22.15;13.88;;;;;;;16.11;100.00;101235.13;5063839;28;20025;-65
2023/09/29 04:15:05;;;;;;;19.48;13.40;;;;;;;16.11;100.00;101227.56;5073341;28;20464;-65
2023/09/29 04:17:31;;;;;;;20.58;14.57;;;;;;;16.10;100.00;101225.09;5062982;28;20024;-65
2023/09/29 04:19:56;;;;;;;19.30;13.80;;;;;;;16.09;100.00;101237.41;5051632;28;20426;-64
2023/09/29 04:22:24;;;;;;;19.25;13.70;;;;;;;16.11;100.00;101243.50;5066190;28;20023;-64
2023/09/29 04:24:51;;;;;;;20.65;14.20;;;;;;;16.11;100.00;101241.50;5059866;28;20417;-64
2023/09/29 04:27:16;;;;;;;19.65;14.18;;;;;;;16.13;100.00;101228.03;5052992;28;20387;-64
2023/09/29 04:29:41;;;;;;;19.00;13.45;;;;;;;16.15;100.00;101224.94;5053998;28;20100;-65
2023/09/29 04:32:07;;;;;;;19.48;13.85;;;;;;;16.16;100.00;101220.97;5064510;28;20468;-65
2023/09/29 04:34:33;;;;;;;19.30;14.18;;;;;;;16.15;100.00;101217.38;5066730;28;20115;-65
2023/09/29 04:36:58;;;;;;;19.58;14.60;;;;;;;16.17;100.00;101219.81;5054717;28;20033;-65
2023/09/29 04:39:24;;;;;;;18.27;13.43;;;;;;;16.18;100.00;101221.44;5063742;28;20074;-65
2023/09/29 04:41:49;;;;;;;19.08;13.38;;;;;;;16.17;100.00;101217.84;5067044;28;20064;-65
2023/09/29 04:44:15;;;;;;;19.92;14.30;;;;;;;16.19;100.00;101221.13;5059532;28;20052;-66
2023/09/29 04:46:42;;;;;;;20.35;14.48;;;;;;;16.21;100.00;101216.00;5071511;28;20059;-64
2023/09/29 04:49:07;;;;;;;18.90;13.52;;;;;;;16.24;100.00;101205.34;5073098;28;20397;-64
2023/09/29 04:51:33;;;;;;;19.60;14.27;;;;;;;16.24;100.00;101200.59;5064511;28;20058;-65
2023/09/29 04:53:59;;;;;;;19.52;13.70;;;;;;;16.24;100.00;101206.19;5072859;28;20024;-64
2023/09/29 04:56:25;;;;;;;18.77;13.70;;;;;;;16.26;100.00;101205.81;5056826;28;20024;-65
2023/09/29 04:58:50;;;;;;;19.58;14.48;;;;;;;16.27;100.00;101205.47;5054520;28;20058;-66
2023/09/29 05:01:19;;;;;;;19.15;13.70;;;;;;;16.28;100.00;101203.53;5070185;28;20032;-65
2023/09/29 05:03:47;;;;;;;20.58;13.85;;;;;;;16.29;100.00;101211.56;5065284;28;20235;-65
2023/09/29 05:06:13;;;;;;;19.35;13.70;;;;;;;16.32;100.00;101212.84;5057966;28;20051;-65
2023/09/29 05:08:39;;;;;;;19.08;13.95;;;;;;;16.32;100.00;101202.50;5054558;28;20491;-64
2023/09/29 05:11:04;;;;;;;20.00;14.23;;;;;;;16.34;100.00;101208.56;5062070;28;20024;-65
2023/09/29 05:13:32;;;;;;;19.77;14.30;;;;;;;16.35;100.00;101203.81;5063941;28;20029;-65
2023/09/29 05:16:00;;;;;;;18.50;13.50;;;;;;;16.37;100.00;101193.94;5062919;28;20016;-65
2023/09/29 05:18:26;;;;;;;19.23;13.93;;;;;;;16.38;100.00;101190.00;5062406;28;20495;-65
2023/09/29 05:20:52;;;;;;;20.98;13.30;;;;;;;16.39;100.00;101193.59;5064315;28;20020;-65
2023/09/29 05:23:17;;;;;;;19.75;14.13;;;;;;;16.38;100.00;101187.19;5055390;28;20506;-65
2023/09/29 05:25:47;;;;;;;19.58;13.98;;;;;;;16.41;100.00;101179.31;5067847;28;20028;-65
2023/09/29 05:28:13;;;;;;;20.23;14.43;;;;;;;16.42;100.00;101187.34;5069945;28;20146;-65
2023/09/29 05:30:39;;;;;;;21.52;14.98;;;;;;;16.43;100.00;101186.19;5067513;28;20032;-65
2023/09/29 05:33:05;;;;;;;20.02;14.70;;;;;;;16.41;100.00;101182.09;5045683;28;20458;-65
2023/09/29 05:35:30;;;;;;;21.45;15.90;;;;;;;16.41;100.00;101184.88;5065861;28;20036;-65
2023/09/29 05:37:56;;;;;;;21.42;14.73;;;;;;;16.42;100.00;101186.53;5060570;28;20025;-65
2023/09/29 05:40:21;;;;;;;20.30;14.82;;;;;;;16.43;100.00;101185.38;5055147;28;20052;-65
2023/09/29 05:42:47;;;;;;;19.63;14.10;;;;;;;16.42;100.00;101187.34;5051977;28;20059;-65
2023/09/29 05:45:12;;;;;;;19.33;14.40;;;;;;;16.43;100.00;101185.38;5070484;28;20092;-65
2023/09/29 05:47:38;;;;;;;20.20;14.70;;;;;;;16.43;100.00;101191.75;5054380;28;20450;-65
2023/09/29 05:50:03;;;;;;;19.90;14.38;;;;;;;16.43;100.00;101188.97;5058363;28;20419;-65
2023/09/29 05:52:29;;;;;;;19.60;14.00;;;;;;;16.43;100.00;101191.75;5048232;28;20063;-65
2023/09/29 05:54:54;;;;;;;18.92;13.93;;;;;;;16.42;100.00;101186.53;5050689;28;20029;-66
2023/09/29 05:57:20;;;;;;;19.30;13.68;;;;;;;16.44;100.00;101187.81;5064732;28;20064;-66
2023/09/29 05:59:46;;;;;;;20.17;13.13;;;;;;;16.45;100.00;101189.47;5050609;28;20036;-66
2023/09/29 06:02:11;;;;;;;19.83;12.90;;;;;;;16.47;100.00;101192.75;5051773;28;20033;-66
2023/09/29 06:04:36;;;;;;;18.40;13.13;;;;;;;16.48;100.00;101190.75;5066421;28;20116;-66
2023/09/29 06:07:02;;;;;;;19.00;13.80;;;;;;;16.48;100.00;101185.16;5053423;28;20032;-66
2023/09/29 06:09:28;;;;;;;19.25;13.40;;;;;;;16.47;100.00;101177.94;5047962;28;20160;-66
2023/09/29 06:11:53;;;;;;;20.85;14.02;;;;;;;16.52;100.00;101180.56;5065854;28;20060;-66
2023/09/29 06:14:18;;;;;;;20.08;13.02;;;;;;;16.56;100.00;101195.47;5066880;28;20124;-66
2023/09/29 06:16:43;;;;;;;20.90;13.50;;;;;;;16.60;100.00;101195.59;5032814;28;20376;-66
2023/09/29 06:19:09;;;;;;;20.42;13.27;;;;;;;16.63;100.00;101197.72;5064136;28;20031;-66
2023/09/29 06:21:35;;;;;;;19.00;13.10;;;;;;;16.67;100.00;101191.13;5042070;28;20092;-66
2023/09/29 06:24:00;;;;;;;19.80;13.50;;;;;;;16.71;100.00;101202.44;5060997;28;20025;-66
2023/09/29 06:26:26;;;;;;;20.27;13.07;;;;;;;16.76;100.00;101202.25;5060080;28;20052;-66
2023/09/29 06:28:51;;;;;;;18.92;12.85;;;;;;;16.81;100.00;101198.44;5070060;28;20033;-66
2023/09/29 06:31:17;;;;;;;19.85;12.70;;;;;;;16.86;100.00;101198.22;5056051;28;20029;-65
2023/09/29 06:33:42;;;;;;;19.85;13.25;;;;;;;16.89;100.00;101183.56;5061388;28;20021;-66
2023/09/29 06:36:07;;;;;;;18.80;13.23;;;;;;;16.92;100.00;101191.25;5061596;28;20104;-65
2023/09/29 06:38:33;;;;;;;19.02;13.20;;;;;;;16.98;100.00;101200.28;5074096;28;20028;-65
2023/09/29 06:40:58;;;;;;;18.55;12.73;;;;;;;17.03;100.00;101196.44;5071342;28;20037;-65
2023/09/29 06:43:24;;;;;;;18.23;12.80;;;;;;;17.06;100.00;101201.38;5073162;28;20028;-66
2023/09/29 06:45:49;;;;;;;20.88;13.07;;;;;;;17.07;100.00;101208.59;5075035;28;20029;-65
2023/09/29 06:48:15;;;;;;;20.63;13.40;;;;;;;17.07;100.00;101205.81;5061220;28;20064;-66
2023/09/29 06:50:40;;;;;;;21.25;13.43;;;;;;;17.08;100.00;101211.03;5070448;28;20029;-65
2023/09/29 06:53:06;;;;;;;19.60;13.27;;;;;;;17.10;100.00;101208.72;5067686;28;20056;-65
2023/09/29 06:55:31;;;;;;;18.92;13.30;;;;;;;17.12;100.00;101200.00;5066541;28;20029;-65
2023/09/29 06:57:58;;;;;;;19.58;13.50;;;;;;;17.13;100.00;101210.84;5060024;28;20131;-65
2023/09/29 07:00:24;;;;;;;20.65;13.68;;;;;;;17.15;100.00;101210.50;5063847;28;20032;-65
2023/09/29 07:02:49;;;;;;;19.05;13.45;;;;;;;17.18;100.00;101214.56;5074696;28;20024;-65
2023/09/29 07:05:15;;;;;;;20.25;13.88;;;;;;;17.20;100.00;101215.06;5055849;28;20032;-65
2023/09/29 07:07:41;;;;;;;19.67;13.45;;;;;;;17.23;100.00;101222.78;5069076;28;20032;-64
2023/09/29 07:10:06;;;;;;;19.55;13.40;;;;;;;17.27;100.00;101218.13;5062070;28;20017;-65
2023/09/29 07:12:32;;;;;;;19.33;13.43;;;;;;;17.31;100.00;101219.88;5061080;28;20485;-65
2023/09/29 07:14:58;;;;;;;19.27;12.93;;;;;;;17.37;100.00;101219.69;5052875;28;20742;-65
2023/09/29 07:17:23;;;;;;;18.38;13.32;;;;;;;17.41;100.00;101224.25;5058486;28;20052;-63
2023/09/29 07:19:49;;;;;;;18.10;13.27;;;;;;;17.49;100.00;101228.09;5061661;28;20078;-63
2023/09/29 07:22:14;;;;;;;20.33;14.07;;;;;;;17.56;100.00;101221.94;5052827;28;20039;-63
2023/09/29 07:24:41;;;;;;;20.35;14.68;;;;;;;17.64;100.00;101217.44;5059772;28;20028;-62
2023/09/29 07:27:08;;;;;;;19.83;14.77;;;;;;;17.75;100.00;101224.22;5071779;28;20176;-62
2023/09/29 07:29:34;;;;;;;19.92;14.48;;;;;;;17.83;100.00;101216.88;5061577;28;20353;-63
2023/09/29 07:31:59;;;;;;;19.55;14.52;;;;;;;17.90;100.00;101214.34;5071899;28;20115;-62
2023/09/29 07:34:27;;;;;;;20.63;14.40;;;;;;;17.99;100.00;101225.47;5063453;28;20060;-63
2023/09/29 07:36:53;;;;;;;19.38;14.57;;;;;;;18.06;100.00;101222.91;5062869;28;20346;-62
2023/09/29 07:39:18;;;;;;;20.45;14.88;;;;;;;18.16;100.00;101228.03;5062165;28;20048;-62
2023/09/29 07:41:43;;;;;;;21.17;14.75;;;;;;;18.26;100.00;101226.78;5062267;28;20049;-63
2023/09/29 07:44:09;;;;;;;20.13;14.30;;;;;;;18.37;100.00;101225.13;5061150;28;20033;-63
2023/09/29 07:46:38;;;;;;;20.70;14.02;;;;;;;18.50;100.00;101233.53;5059692;28;20042;-63
2023/09/29 07:49:04;;;;;;;20.00;13.30;;;;;;;18.59;100.00;101217.41;5063053;28;20052;-63
2023/09/29 07:51:29;;;;;;;19.13;13.02;;;;;;;18.75;100.00;101231.50;5062376;28;20032;-62
2023/09/29 07:53:59;;;;;;;18.27;12.57;;;;;;;18.85;100.00;101233.00;5063276;28;20380;-62
2023/09/29 07:56:25;;;;;;;18.40;12.35;;;;;;;18.96;100.00;101231.38;5067203;28;20032;-63
2023/09/29 07:58:52;;;;;;;18.20;12.27;;;;;;;19.04;100.00;101237.19;5053988;28;20434;-62
2023/09/29 08:01:17;;;;;;;17.67;11.98;;;;;;;19.14;100.00;101239.50;5043108;28;20111;-63
2023/09/29 08:03:44;;;;;;;20.00;12.20;;;;;;;19.24;100.00;101241.00;5045305;28;20115;-62
2023/09/29 08:06:09;;;;;;;18.17;11.60;;;;;;;19.36;100.00;101240.97;5072058;28;20056;-64
2023/09/29 08:08:35;;;;;;;17.50;11.85;;;;;;;19.46;100.00;101246.03;5060058;28;20060;-63
2023/09/29 08:11:01;;;;;;;17.85;11.98;;;;;;;19.51;100.00;101238.53;5065992;28;20129;-65
2023/09/29 08:13:27;;;;;;;17.25;11.60;;;;;;;19.55;100.00;101236.66;5057194;28;20029;-64
2023/09/29 08:15:52;;;;;;;20.75;11.90;;;;;;;19.62;100.00;101250.88;5067240;28;20027;-64
2023/09/29 08:18:17;;;;;;;18.45;11.73;;;;;;;19.72;100.00;101249.53;5046760;28;20464;-64
2023/09/29 08:20:43;;;;;;;17.70;11.60;;;;;;;19.82;100.00;101253.81;5055984;28;20025;-64
2023/09/29 08:23:09;;;;;;;18.77;12.10;;;;;;;19.88;100.00;101253.25;5071671;28;20043;-64
2023/09/29 08:25:34;;;;;;;17.98;11.82;;;;;;;19.94;100.00;101256.56;5065577;28;20110;-63
2023/09/29 08:28:02;;;;;;;18.45;11.85;;;;;;;19.95;100.00;101256.22;5086855;28;20062;-63
2023/09/29 08:30:28;;;;;;;18.55;12.68;;;;;;;19.96;100.00;101257.03;5092292;28;20031;-64
2023/09/29 08:32:53;;;;;;;19.10;12.27;;;;;;;20.00;100.00;101269.19;5075791;28;20028;-64
2023/09/29 08:35:18;;;;;;;21.92;13.80;;;;;;;20.04;100.00;101270.06;5071644;28;20487;-64
2023/09/29 08:37:45;;;;;;;21.10;13.27;;;;;;;20.06;100.00;101278.97;5064694;28;20098;-64
2023/09/29 08:40:14;;;;;;;18.75;12.00;;;;;;;20.09;100.00;101278.25;5064228;28;20178;-64
2023/09/29 08:42:45;;;;;;;17.02;11.35;;;;;;;20.12;100.00;101278.72;5064182;28;20024;-64
2023/09/29 08:45:13;;;;;;;17.80;11.40;;;;;;;20.11;100.00;101280.69;5062497;28;20094;-64
2023/09/29 08:47:42;;;;;;;18.77;11.25;;;;;;;20.13;100.00;101280.31;5065448;28;20029;-64
2023/09/29 08:50:12;;;;;;;18.70;11.60;;;;;;;20.14;100.00;101287.56;5069228;28;20078;-64
2023/09/29 08:52:40;;;;;;;19.38;11.68;;;;;;;20.16;100.00;101286.06;5064490;28;20037;-64
2023/09/29 08:55:07;;;;;;;18.13;11.45;;;;;;;20.24;100.00;101299.09;5062764;28;20028;-64
2023/09/29 08:57:33;;;;;;;17.58;11.57;;;;;;;20.34;100.00;101291.31;5063380;28;20028;-64
2023/09/29 09:00:00;;;;;;;18.27;11.93;;;;;;;20.39;100.00;101294.66;5064134;28;20099;-64
2023/09/29 09:02:26;;;;;;;19.00;11.60;;;;;;;20.47;100.00;101289.22;5068653;28;20040;-65
2023/09/29 09:04:52;;;;;;;18.88;11.73;;;;;;;20.51;100.00;101301.34;5060746;28;20490;-63
2023/09/29 09:07:19;;;;;;;18.35;11.70;;;;;;;20.58;100.00;101296.72;5061705;28;20033;-65
2023/09/29 09:09:53;;;;;;;18.70;11.68;;;;;;;20.65;100.00;101296.09;5057893;28;20029;-65
2023/09/29 09:12:31;;;;;;;19.42;11.18;;;;;;;20.82;100.00;101299.72;5061774;28;20135;-64
2023/09/29 09:14:56;;;;;;;19.92;11.80;;;;;;;21.01;100.00;101301.78;5059609;28;20035;-64
2023/09/29 09:17:23;;;;;;;20.27;11.75;;;;;;;21.08;100.00;101304.75;5069095;28;20123;-65
2023/09/29 09:19:51;;;;;;;18.83;11.10;;;;;;;21.12;100.00;101313.25;5070803;28;20456;-64
2023/09/29 09:22:31;;;;;;;19.02;11.30;;;;;;;21.09;100.00;101300.75;5071729;28;20078;-64
2023/09/29 09:24:58;;;;;;;20.10;11.48;;;;;;;21.17;100.00;101310.13;5067850;28;20511;-65
2023/09/29 09:27:23;;;;;;;19.85;12.07;;;;;;;21.18;100.00;101318.22;5070263;28;20114;-65
2023/09/29 09:29:49;;;;;;;20.85;11.63;;;;;;;21.11;100.00;101320.06;5070123;28;20536;-65
2023/09/29 09:32:14;;;;;;;18.58;11.75;;;;;;;21.09;100.00;101316.78;5069649;28;20568;-64
2023/09/29 09:34:41;;;;;;;19.40;11.57;;;;;;;21.06;100.00;101321.16;5070016;28;20036;-65
2023/09/29 09:37:07;;;;;;;20.33;11.98;;;;;;;21.03;100.00;101333.13;5070035;28;20020;-64
2023/09/29 09:39:34;;;;;;;18.60;11.30;;;;;;;20.87;100.00;101333.19;5069901;28;20025;-65
2023/09/29 09:42:03;;;;;;;18.50;12.05;;;;;;;20.67;100.00;101352.75;5051420;28;20555;-65
2023/09/29 09:44:28;;;;;;;18.85;12.10;;;;;;;20.29;100.00;101344.94;5069978;28;20403;-65
2023/09/29 09:47:10;;;;;;;19.42;12.45;;;;;;;20.16;100.00;101345.03;5069649;28;20032;-64
2023/09/29 09:49:43;;;;;;;18.02;12.55;;;;;;;20.16;100.00;101344.19;5070093;28;20040;-64
2023/09/29 09:52:12;;;;;;;18.83;12.52;;;;;;;20.17;100.00;101348.66;5069756;28;20032;-64
2023/09/29 09:54:52;;;;;;;19.85;12.98;;;;;;;20.19;100.00;101349.91;5070046;28;20031;-65
2023/09/29 09:57:30;;;;;;;21.52;13.77;;;;;;;20.19;100.00;101349.09;5069711;28;20536;-64
2023/09/29 09:59:56;;;;;;;19.70;13.25;;;;;;;20.17;100.00;101345.84;5069942;28;20186;-65
2023/09/29 10:02:22;;;;;;;19.08;12.90;;;;;;;20.19;100.00;101349.09;5069968;28;20491;-63
2023/09/29 10:04:49;;;;;;;19.77;12.95;;;;;;;20.22;100.00;101351.19;5069929;28;20025;-64
2023/09/29 10:07:15;;;;;;;20.00;12.82;;;;;;;20.29;100.00;101350.56;5069859;28;20143;-64
2023/09/29 10:09:43;;;;;;;19.40;12.50;;;;;;;20.29;100.00;101359.81;5069810;28;20675;-64
2023/09/29 10:12:21;;;;;;;18.67;12.85;;;;;;;20.28;100.00;101355.38;5055323;28;20115;-62
2023/09/29 10:14:46;;;;;;;19.48;13.10;;;;;;;20.25;100.00;101354.09;5055625;28;20028;-63
2023/09/29 10:17:13;;;;;;;20.08;12.75;;;;;;;20.27;100.00;101350.94;5073350;28;20031;-64
2023/09/29 10:19:38;;;;;;;19.15;12.02;;;;;;;20.30;100.00;101355.84;5073631;28;20082;-64
2023/09/29 10:22:04;;;;;;;18.85;11.60;;;;;;;20.34;100.00;101358.75;5073742;28;20028;-63
2023/09/29 10:24:30;;;;;;;20.35;12.50;;;;;;;20.33;100.00;101362.72;5071591;28;20286;-65
2023/09/29 10:26:59;;;;;;;18.58;11.48;;;;;;;20.30;100.00;101358.66;5073088;28;20020;-64
2023/09/29 10:29:28;;;;;;;17.98;11.48;;;;;;;20.33;100.00;101368.34;5055803;28;20067;-64
2023/09/29 10:31:56;;;;;;;20.05;11.90;;;;;;;20.34;100.00;101358.75;5072819;28;20135;-63
2023/09/29 10:34:22;;;;;;;18.90;11.45;;;;;;;20.39;100.00;101359.28;5073321;28;20079;-64
2023/09/29 10:36:55;;;;;;;17.45;11.38;;;;;;;20.53;100.00;101369.25;5072896;28;20032;-64
2023/09/29 10:39:26;;;;;;;17.95;11.57;;;;;;;20.66;100.00;101373.63;5073275;28;20048;-64
2023/09/29 10:41:59;;;;;;;17.70;11.60;;;;;;;20.75;100.00;101373.44;5073076;28;20106;-64
2023/09/29 10:44:28;;;;;;;;;;;;;;;20.80;100.00;101367.56;5073304;28;20478;-64
2023/09/29 10:46:54;;;;;;;17.70;11.93;;;;;;;20.71;100.00;101378.16;5073235;28;19939;-64
2023/09/29 10:49:20;;;;;;;18.85;12.18;;;;;;;20.64;100.00;101381.59;5093172;28;20515;-64
2023/09/29 10:51:46;;;;;;;18.52;11.45;;;;;;;20.57;100.00;101376.59;5093247;28;20030;-64
2023/09/29 10:54:11;;;;;;;19.52;11.50;;;;;;;20.53;100.00;101386.13;5074630;28;20032;-63
2023/09/29 10:56:37;;;;;;;18.95;12.07;;;;;;;20.49;100.00;101382.41;5093372;28;20031;-63
2023/09/29 10:59:07;;;;;;;18.65;11.55;;;;;;;20.40;100.00;101389.00;5092845;28;20042;-63